Time,TemperatureF,DewpointF,PressureIn,WindDirection,WindDirectionDegrees,WindSpeedMPH,WindSpeedGustMPH,Humidity,HourlyPrecipIn,Conditions,Clouds,dailyrainin,SoftwareType,DateUTC
2013-05-14 00:02:00,41.0,39.0,-100.00,ESE,110,1.0,1.0,95,-99.99,,,-99.99,,2013-05-14 08:02:00,
2013-05-14 00:11:00,41.0,39.0,-100.00,ESE,110,1.0,1.0,95,-99.99,,,-99.99,,2013-05-14 08:11:00,
2013-05-14 00:21:00,40.0,39.0,-100.00,SE,135,0.0,1.0,96,-99.99,,,-99.99,,2013-05-14 08:21:00,
2013-05-14 00:31:00,40.0,39.0,-100.00,SE,135,0.0,1.0,96,-99.99,,,-99.99,,2013-05-14 08:31:00,
2013-05-14 00:42:00,40.0,39.0,-100.00,SE,135,0.0,1.0,96,-99.99,,,-99.99,,2013-05-14 08:42:00,
2013-05-14 00:52:00,39.0,39.0,-100.00,NE,40,0.0,2.0,97,-99.99,,,-99.99,,2013-05-14 08:52:00,
2013-05-14 01:01:00,39.0,39.0,-100.00,NE,40,0.0,2.0,97,-99.99,,,-99.99,,2013-05-14 09:01:00,
2013-05-14 01:11:00,39.0,39.0,-100.00,NE,40,0.0,2.0,97,-99.99,,,-99.99,,2013-05-14 09:11:00,
2013-05-14 01:21:00,39.0,38.0,-100.00,North,10,0.0,1.0,97,-99.99,,,-99.99,,2013-05-14 09:21:00,
2013-05-14 01:32:00,39.0,38.0,-100.00,North,10,0.0,1.0,97,-99.99,,,-99.99,,2013-05-14 09:32:00,
2013-05-14 01:44:00,39.0,38.0,-100.00,North,10,0.0,1.0,97,-99.99,,,-99.99,,2013-05-14 09:44:00,
2013-05-14 01:54:00,38.0,38.0,-100.00,NW,315,1.0,2.0,97,-99.99,,,-99.99,,2013-05-14 09:54:00,
2013-05-14 02:04:00,38.0,38.0,-100.00,NW,315,1.0,2.0,97,-99.99,,,-99.99,,2013-05-14 10:04:00,
2013-05-14 02:14:00,38.0,38.0,-100.00,NW,315,1.0,2.0,97,-99.99,,,-99.99,,2013-05-14 10:14:00,
2013-05-14 02:25:00,38.0,36.0,-100.00,North,350,1.0,5.0,91,-99.99,,,-99.99,,2013-05-14 10:25:00,
2013-05-14 02:32:00,38.0,36.0,-100.00,North,350,1.0,5.0,91,-99.99,,,-99.99,,2013-05-14 10:32:00,
2013-05-14 02:42:00,38.0,36.0,-100.00,North,350,1.0,5.0,91,-99.99,,,-99.99,,2013-05-14 10:42:00,
2013-05-14 02:52:00,39.0,31.0,-100.00,North,350,4.0,9.0,71,-99.99,,,-99.99,,2013-05-14 10:52:00,
2013-05-14 03:02:00,39.0,31.0,-100.00,North,350,4.0,9.0,71,-99.99,,,-99.99,,2013-05-14 11:02:00,
2013-05-14 03:11:00,39.0,31.0,-100.00,North,350,4.0,9.0,71,-99.99,,,-99.99,,2013-05-14 11:11:00,
2013-05-14 03:21:00,39.0,31.0,-100.00,East,95,3.0,7.0,73,-99.99,,,-99.99,,2013-05-14 11:21:00,
2013-05-14 03:32:00,39.0,31.0,-100.00,East,95,3.0,7.0,73,-99.99,,,-99.99,,2013-05-14 11:32:00,
2013-05-14 03:43:00,39.0,31.0,-100.00,East,95,3.0,7.0,73,-99.99,,,-99.99,,2013-05-14 11:43:00,
2013-05-14 03:52:00,38.0,32.0,-100.00,East,90,1.0,3.0,77,-99.99,,,-99.99,,2013-05-14 11:52:00,
2013-05-14 04:02:00,38.0,32.0,-100.00,East,90,1.0,3.0,77,-99.99,,,-99.99,,2013-05-14 12:02:00,
2013-05-14 04:12:00,38.0,32.0,-100.00,East,90,1.0,3.0,77,-99.99,,,-99.99,,2013-05-14 12:12:00,
2013-05-14 04:21:00,38.0,27.0,-100.00,NW,325,1.0,6.0,65,-99.99,,,-99.99,,2013-05-14 12:21:00,
2013-05-14 04:31:00,38.0,27.0,-100.00,NW,325,1.0,6.0,65,-99.99,,,-99.99,,2013-05-14 12:31:00,
2013-05-14 04:42:00,38.0,27.0,-100.00,NW,325,1.0,6.0,65,-99.99,,,-99.99,,2013-05-14 12:42:00,
2013-05-14 04:52:00,37.0,28.0,-100.00,East,90,4.0,6.0,70,-99.99,,,-99.99,,2013-05-14 12:52:00,
2013-05-14 05:01:00,37.0,28.0,-100.00,East,90,4.0,6.0,70,-99.99,,,-99.99,,2013-05-14 13:01:00,
2013-05-14 05:11:00,37.0,28.0,-100.00,East,90,4.0,6.0,70,-99.99,,,-99.99,,2013-05-14 13:11:00,
2013-05-14 05:22:00,37.0,26.0,-100.00,NE,55,1.0,3.0,64,-99.99,,,-99.99,,2013-05-14 13:22:00,
2013-05-14 05:32:00,37.0,26.0,-100.00,NE,55,1.0,3.0,64,-99.99,,,-99.99,,2013-05-14 13:32:00,
2013-05-14 05:42:00,37.0,26.0,-100.00,NE,55,1.0,3.0,64,-99.99,,,-99.99,,2013-05-14 13:42:00,
2013-05-14 05:52:00,35.0,27.0,-100.00,NNE,30,1.0,2.0,70,-99.99,,,-99.99,,2013-05-14 13:52:00,
2013-05-14 06:01:00,35.0,27.0,-100.00,NNE,30,1.0,2.0,70,-99.99,,,-99.99,,2013-05-14 14:01:00,
2013-05-14 06:11:00,35.0,27.0,-100.00,NNE,30,1.0,2.0,70,-99.99,,,-99.99,,2013-05-14 14:11:00,
2013-05-14 06:22:00,35.0,27.0,-100.00,ENE,75,2.0,4.0,75,-99.99,,,-99.99,,2013-05-14 14:22:00,
2013-05-14 06:31:00,35.0,27.0,-100.00,ENE,75,2.0,4.0,75,-99.99,,,-99.99,,2013-05-14 14:31:00,
2013-05-14 06:42:00,35.0,27.0,-100.00,ENE,75,2.0,4.0,75,-99.99,,,-99.99,,2013-05-14 14:42:00,
2013-05-14 06:52:00,35.0,28.0,-100.00,NNW,335,1.0,2.0,77,-99.99,,,-99.99,,2013-05-14 14:52:00,
2013-05-14 07:01:00,35.0,28.0,-100.00,NNW,335,1.0,2.0,77,-99.99,,,-99.99,,2013-05-14 15:01:00,
2013-05-14 07:12:00,35.0,28.0,-100.00,NNW,335,1.0,2.0,77,-99.99,,,-99.99,,2013-05-14 15:12:00,
2013-05-14 07:21:00,35.0,27.0,-100.00,East,100,2.0,5.0,75,-99.99,,,-99.99,,2013-05-14 15:21:00,
2013-05-14 07:32:00,35.0,27.0,-100.00,East,100,2.0,5.0,75,-99.99,,,-99.99,,2013-05-14 15:32:00,
2013-05-14 07:43:00,35.0,27.0,-100.00,East,100,2.0,5.0,75,-99.99,,,-99.99,,2013-05-14 15:43:00,
2013-05-14 07:53:00,37.0,21.0,-100.00,North,0,1.0,7.0,52,-99.99,,,-99.99,,2013-05-14 15:53:00,
2013-05-14 08:02:00,37.0,21.0,-100.00,North,0,1.0,7.0,52,-99.99,,,-99.99,,2013-05-14 16:02:00,
2013-05-14 08:12:00,37.0,21.0,-100.00,North,0,1.0,7.0,52,-99.99,,,-99.99,,2013-05-14 16:12:00,
2013-05-14 08:23:00,38.0,19.0,-100.00,NNW,335,2.0,6.0,46,-99.99,,,-99.99,,2013-05-14 16:23:00,
2013-05-14 08:33:00,38.0,19.0,-100.00,NNW,335,2.0,6.0,46,-99.99,,,-99.99,,2013-05-14 16:33:00,
2013-05-14 08:44:00,38.0,19.0,-100.00,NNW,335,2.0,6.0,46,-99.99,,,-99.99,,2013-05-14 16:44:00,
2013-05-14 08:54:00,38.0,19.0,-100.00,NNW,345,2.0,7.0,45,-99.99,,,-99.99,,2013-05-14 16:54:00,
2013-05-14 09:03:00,38.0,19.0,-100.00,NNW,345,2.0,7.0,45,-99.99,,,-99.99,,2013-05-14 17:03:00,
2013-05-14 09:13:00,38.0,19.0,-100.00,NNW,345,2.0,7.0,45,-99.99,,,-99.99,,2013-05-14 17:13:00,
2013-05-14 09:24:00,40.0,19.0,-100.00,North,0,3.0,8.0,42,-99.99,,,-99.99,,2013-05-14 17:24:00,
2013-05-14 09:32:00,40.0,19.0,-100.00,North,0,3.0,8.0,42,-99.99,,,-99.99,,2013-05-14 17:32:00,
2013-05-14 09:43:00,40.0,19.0,-100.00,North,0,3.0,8.0,42,-99.99,,,-99.99,,2013-05-14 17:43:00,
2013-05-14 09:52:00,40.0,19.0,-100.00,NW,320,5.0,10.0,43,-99.99,,,-99.99,,2013-05-14 17:52:00,
2013-05-14 10:01:00,40.0,19.0,-100.00,NW,320,5.0,10.0,43,-99.99,,,-99.99,,2013-05-14 18:01:00,
2013-05-14 10:12:00,40.0,19.0,-100.00,NW,320,5.0,10.0,43,-99.99,,,-99.99,,2013-05-14 18:12:00,
2013-05-14 10:22:00,40.0,20.0,-100.00,NW,320,6.0,10.0,44,-99.99,,,-99.99,,2013-05-14 18:22:00,
2013-05-14 10:31:00,40.0,20.0,-100.00,NW,320,6.0,10.0,44,-99.99,,,-99.99,,2013-05-14 18:31:00,
2013-05-14 10:42:00,40.0,20.0,-100.00,NW,320,6.0,10.0,44,-99.99,,,-99.99,,2013-05-14 18:42:00,
2013-05-14 10:52:00,41.0,21.0,-100.00,NW,325,4.0,9.0,44,-99.99,,,-99.99,,2013-05-14 18:52:00,
2013-05-14 11:01:00,41.0,21.0,-100.00,NW,325,4.0,9.0,44,-99.99,,,-99.99,,2013-05-14 19:01:00,
2013-05-14 11:11:00,41.0,21.0,-100.00,NW,325,4.0,9.0,44,-99.99,,,-99.99,,2013-05-14 19:11:00,
2013-05-14 11:21:00,41.0,20.0,-100.00,NW,315,6.0,11.0,43,-99.99,,,-99.99,,2013-05-14 19:21:00,
2013-05-14 11:31:00,41.0,20.0,-100.00,NW,315,6.0,11.0,43,-99.99,,,-99.99,,2013-05-14 19:31:00,
2013-05-14 11:42:00,41.0,20.0,-100.00,NW,315,6.0,11.0,43,-99.99,,,-99.99,,2013-05-14 19:42:00,
2013-05-14 11:52:00,41.0,23.0,-100.00,NW,315,6.0,12.0,47,-99.99,,,-99.99,,2013-05-14 19:52:00,
2013-05-14 12:02:00,41.0,23.0,-100.00,NW,315,6.0,12.0,47,-99.99,,,-99.99,,2013-05-14 20:02:00,
2013-05-14 12:11:00,41.0,23.0,-100.00,NW,315,6.0,12.0,47,-99.99,,,-99.99,,2013-05-14 20:11:00,
2013-05-14 12:22:00,42.0,23.0,-100.00,NW,320,7.0,12.0,46,-99.99,,,-99.99,,2013-05-14 20:22:00,
2013-05-14 12:32:00,42.0,23.0,-100.00,NW,320,7.0,12.0,46,-99.99,,,-99.99,,2013-05-14 20:32:00,
2013-05-14 12:44:00,42.0,23.0,-100.00,NW,320,7.0,12.0,46,-99.99,,,-99.99,,2013-05-14 20:44:00,
2013-05-14 12:52:00,44.0,24.0,-100.00,NNW,330,6.0,12.0,44,-99.99,,,-99.99,,2013-05-14 20:52:00,
2013-05-14 13:03:00,44.0,24.0,-100.00,NNW,330,6.0,12.0,44,-99.99,,,-99.99,,2013-05-14 21:03:00,
2013-05-14 13:12:00,44.0,24.0,-100.00,NNW,330,6.0,12.0,44,-99.99,,,-99.99,,2013-05-14 21:12:00,
2013-05-14 13:22:00,43.0,22.0,-100.00,WNW,295,5.0,12.0,44,-99.99,,,-99.99,,2013-05-14 21:22:00,
2013-05-14 13:34:00,43.0,22.0,-100.00,WNW,295,5.0,12.0,44,-99.99,,,-99.99,,2013-05-14 21:34:00,
2013-05-14 13:43:00,43.0,22.0,-100.00,WNW,295,5.0,12.0,44,-99.99,,,-99.99,,2013-05-14 21:43:00,
2013-05-14 13:53:00,44.0,24.0,-100.00,NW,310,6.0,11.0,46,-99.99,,,-99.99,,2013-05-14 21:53:00,
2013-05-14 14:03:00,44.0,24.0,-100.00,NW,310,6.0,11.0,46,-99.99,,,-99.99,,2013-05-14 22:03:00,
2013-05-14 14:13:00,44.0,24.0,-100.00,NW,310,6.0,11.0,46,-99.99,,,-99.99,,2013-05-14 22:13:00,
2013-05-14 14:24:00,42.0,24.0,-100.00,WNW,290,7.0,11.0,47,-99.99,,,-99.99,,2013-05-14 22:24:00,
2013-05-14 14:34:00,42.0,24.0,-100.00,WNW,290,7.0,11.0,47,-99.99,,,-99.99,,2013-05-14 22:34:00,
2013-05-14 14:45:00,42.0,24.0,-100.00,WNW,290,7.0,11.0,47,-99.99,,,-99.99,,2013-05-14 22:45:00,
2013-05-14 14:54:00,43.0,25.0,-100.00,WNW,285,5.0,10.0,50,-99.99,,,-99.99,,2013-05-14 22:54:00,
2013-05-14 15:03:00,43.0,25.0,-100.00,WNW,285,5.0,10.0,50,-99.99,,,-99.99,,2013-05-14 23:03:00,
2013-05-14 15:12:00,43.0,25.0,-100.00,WNW,285,5.0,10.0,50,-99.99,,,-99.99,,2013-05-14 23:12:00,
2013-05-14 15:21:00,43.0,26.0,-100.00,West,280,6.0,9.0,51,-99.99,,,-99.99,,2013-05-14 23:21:00,
2013-05-14 15:31:00,43.0,26.0,-100.00,West,280,6.0,9.0,51,-99.99,,,-99.99,,2013-05-14 23:31:00,
2013-05-14 15:44:00,43.0,26.0,-100.00,West,280,6.0,9.0,51,-99.99,,,-99.99,,2013-05-14 23:44:00,
2013-05-14 15:52:00,43.0,27.0,-100.00,West,260,5.0,8.0,52,-99.99,,,-99.99,,2013-05-14 23:52:00,
2013-05-14 16:01:00,43.0,27.0,-100.00,West,260,5.0,8.0,52,-99.99,,,-99.99,,2013-05-15 00:01:00,
2013-05-14 16:11:00,43.0,27.0,-100.00,West,260,5.0,8.0,52,-99.99,,,-99.99,,2013-05-15 00:11:00,
2013-05-14 16:21:00,44.0,26.0,-100.00,West,270,6.0,9.0,50,-99.99,,,-99.99,,2013-05-15 00:21:00,
2013-05-14 16:32:00,44.0,26.0,-100.00,West,270,6.0,9.0,50,-99.99,,,-99.99,,2013-05-15 00:32:00,
2013-05-14 16:42:00,44.0,26.0,-100.00,West,270,6.0,9.0,50,-99.99,,,-99.99,,2013-05-15 00:42:00,
2013-05-14 16:52:00,43.0,24.0,-100.00,West,260,7.0,11.0,47,-99.99,,,-99.99,,2013-05-15 00:52:00,
2013-05-14 17:01:00,43.0,24.0,-100.00,West,260,7.0,11.0,47,-99.99,,,-99.99,,2013-05-15 01:01:00,
2013-05-14 17:11:00,43.0,24.0,-100.00,West,260,7.0,11.0,47,-99.99,,,-99.99,,2013-05-15 01:11:00,
2013-05-14 17:21:00,44.0,24.0,-100.00,WSW,240,6.0,10.0,45,-99.99,,,-99.99,,2013-05-15 01:21:00,
2013-05-14 17:31:00,44.0,24.0,-100.00,WSW,240,6.0,10.0,45,-99.99,,,-99.99,,2013-05-15 01:31:00,
2013-05-14 17:42:00,44.0,24.0,-100.00,WSW,240,6.0,10.0,45,-99.99,,,-99.99,,2013-05-15 01:42:00,
2013-05-14 17:52:00,44.0,25.0,-100.00,WSW,240,6.0,11.0,48,-99.99,,,-99.99,,2013-05-15 01:52:00,
2013-05-14 18:01:00,44.0,25.0,-100.00,WSW,240,6.0,11.0,48,-99.99,,,-99.99,,2013-05-15 02:01:00,
2013-05-14 18:11:00,44.0,25.0,-100.00,WSW,240,6.0,11.0,48,-99.99,,,-99.99,,2013-05-15 02:11:00,
2013-05-14 18:21:00,44.0,23.0,-100.00,SW,235,7.0,12.0,43,-99.99,,,-99.99,,2013-05-15 02:21:00,
2013-05-14 18:31:00,44.0,23.0,-100.00,SW,235,7.0,12.0,43,-99.99,,,-99.99,,2013-05-15 02:31:00,
2013-05-14 18:42:00,44.0,23.0,-100.00,SW,235,7.0,12.0,43,-99.99,,,-99.99,,2013-05-15 02:42:00,
2013-05-14 18:52:00,45.0,22.0,-100.00,West,260,6.0,10.0,41,-99.99,,,-99.99,,2013-05-15 02:52:00,
2013-05-14 19:01:00,45.0,22.0,-100.00,West,260,6.0,10.0,41,-99.99,,,-99.99,,2013-05-15 03:01:00,
2013-05-14 19:12:00,45.0,22.0,-100.00,West,260,6.0,10.0,41,-99.99,,,-99.99,,2013-05-15 03:12:00,
2013-05-14 19:21:00,45.0,23.0,-100.00,WSW,245,5.0,9.0,42,-99.99,,,-99.99,,2013-05-15 03:21:00,
2013-05-14 19:33:00,45.0,23.0,-100.00,WSW,245,5.0,9.0,42,-99.99,,,-99.99,,2013-05-15 03:33:00,
2013-05-14 19:44:00,45.0,23.0,-100.00,WSW,245,5.0,9.0,42,-99.99,,,-99.99,,2013-05-15 03:44:00,
2013-05-14 19:54:00,45.0,22.0,-100.00,WSW,245,2.0,7.0,40,-99.99,,,-99.99,,2013-05-15 03:54:00,
2013-05-14 20:03:00,45.0,22.0,-100.00,WSW,245,2.0,7.0,40,-99.99,,,-99.99,,2013-05-15 04:03:00,
2013-05-14 20:12:00,45.0,22.0,-100.00,WSW,245,2.0,7.0,40,-99.99,,,-99.99,,2013-05-15 04:12:00,
2013-05-14 20:23:00,45.0,22.0,-100.00,WSW,255,4.0,11.0,40,-99.99,,,-99.99,,2013-05-15 04:23:00,
2013-05-14 20:32:00,45.0,22.0,-100.00,WSW,255,4.0,11.0,40,-99.99,,,-99.99,,2013-05-15 04:32:00,
2013-05-14 20:43:00,45.0,22.0,-100.00,WSW,255,4.0,11.0,40,-99.99,,,-99.99,,2013-05-15 04:43:00,
2013-05-14 20:52:00,45.0,22.0,-100.00,WSW,250,5.0,8.0,41,-99.99,,,-99.99,,2013-05-15 04:52:00,
2013-05-14 21:02:00,45.0,22.0,-100.00,WSW,250,5.0,8.0,41,-99.99,,,-99.99,,2013-05-15 05:02:00,
2013-05-14 21:12:00,45.0,22.0,-100.00,WSW,250,5.0,8.0,41,-99.99,,,-99.99,,2013-05-15 05:12:00,
2013-05-14 21:22:00,45.0,24.0,-100.00,SSW,205,1.0,6.0,43,-99.99,,,-99.99,,2013-05-15 05:22:00,
2013-05-14 21:32:00,45.0,24.0,-100.00,SSW,205,1.0,6.0,43,-99.99,,,-99.99,,2013-05-15 05:32:00,
2013-05-14 21:42:00,45.0,24.0,-100.00,SSW,205,1.0,6.0,43,-99.99,,,-99.99,,2013-05-15 05:42:00,
2013-05-14 21:52:00,43.0,21.0,-100.00,SSE,165,1.0,7.0,41,-99.99,,,-99.99,,2013-05-15 05:52:00,
2013-05-14 22:02:00,43.0,21.0,-100.00,SSE,165,1.0,7.0,41,-99.99,,,-99.99,,2013-05-15 06:02:00,
2013-05-14 22:11:00,43.0,21.0,-100.00,SSE,165,1.0,7.0,41,-99.99,,,-99.99,,2013-05-15 06:11:00,
2013-05-14 22:21:00,42.0,22.0,-100.00,SE,130,1.0,2.0,44,-99.99,,,-99.99,,2013-05-15 06:21:00,
2013-05-14 22:31:00,42.0,22.0,-100.00,SE,130,1.0,2.0,44,-99.99,,,-99.99,,2013-05-15 06:31:00,
2013-05-14 22:42:00,42.0,22.0,-100.00,SE,130,1.0,2.0,44,-99.99,,,-99.99,,2013-05-15 06:42:00,
2013-05-14 22:52:00,38.0,22.0,-100.00,ENE,75,2.0,3.0,54,-99.99,,,-99.99,,2013-05-15 06:52:00,
2013-05-14 23:01:00,38.0,22.0,-100.00,ENE,75,2.0,3.0,54,-99.99,,,-99.99,,2013-05-15 07:01:00,
2013-05-14 23:11:00,38.0,22.0,-100.00,ENE,75,2.0,3.0,54,-99.99,,,-99.99,,2013-05-15 07:11:00,
2013-05-14 23:21:00,33.0,23.0,-100.00,ESE,105,2.0,4.0,65,-99.99,,,-99.99,,2013-05-15 07:21:00,
2013-05-14 23:31:00,33.0,23.0,-100.00,ESE,105,2.0,4.0,65,-99.99,,,-99.99,,2013-05-15 07:31:00,
2013-05-14 23:42:00,33.0,23.0,-100.00,ESE,105,2.0,4.0,65,-99.99,,,-99.99,,2013-05-15 07:42:00,
2013-05-14 23:52:00,31.0,24.0,-100.00,East,85,2.0,3.0,73,-99.99,,,-99.99,,2013-05-15 07:52:00,